Boydell, Arkansas
Current Conditions -  °F | °C
As of 11:53 PM on Sunday 23 Nov 2014 (Local Time) from KLLQ Reporting Station
Clear Clear  
Wind Chill: 62°   Ceiling: Unl
Heat Index: 62°   Visibility: 10mi
Dew Point: 53°   Wind: 12mph
Humidity: 72%   Direction: 240°WSW
Pressure: 29.54"   Gusts: 24mph
Location:  33.3267°N, 91.5515°W
Report Text: KLLQ 240553Z AUTO 24010G21KT 10SM CLR 17/12 A2954 RMK AO2 PK WND 21026/0527 SLP002 T01670117 10172 20167 401830139 53022
Loading
Personal Weather Stations






























Interactive Weather Map New forecast layout! Learn more

10-Day Weather Forecast

Advertisements
Track Severe Weather on mobile